Time,TemperatureF,DewpointF,PressureIn,WindDirection,WindDirectionDegrees,WindSpeedMPH,WindSpeedGustMPH,Humidity,HourlyPrecipIn,Conditions,Clouds,dailyrainin,SoftwareType,DateUTC
2013-07-15 00:11:00,69.0,68.0,-100.00,NNE,15,3.0,4.0,98,0.00,,,0.00,,2013-07-15 05:11:00,
2013-07-15 00:21:00,69.0,68.0,-100.00,NNE,30,3.0,4.0,98,0.00,,,0.00,,2013-07-15 05:21:00,
2013-07-15 00:32:00,69.0,68.0,-100.00,NE,50,4.0,6.0,98,0.00,,,0.00,,2013-07-15 05:32:00,
2013-07-15 00:53:00,69.0,68.0,-100.00,ENE,75,3.0,5.0,97,0.00,,,0.00,,2013-07-15 05:53:00,
2013-07-15 01:02:00,69.0,68.0,-100.00,NE,40,4.0,6.0,97,0.00,,,0.00,,2013-07-15 06:02:00,
2013-07-15 01:11:00,69.0,68.0,-100.00,NE,35,4.0,6.0,96,0.00,,,0.00,,2013-07-15 06:11:00,
2013-07-15 01:22:00,69.0,68.0,-100.00,NE,50,3.0,6.0,97,0.00,,,0.00,,2013-07-15 06:22:00,
2013-07-15 01:32:00,69.0,68.0,-100.00,NE,55,2.0,6.0,97,0.00,,,0.00,,2013-07-15 06:32:00,
2013-07-15 01:53:00,69.0,68.0,-100.00,ENE,70,4.0,7.0,95,0.00,,,0.00,,2013-07-15 06:53:00,
2013-07-15 02:01:00,69.0,68.0,-100.00,ENE,70,7.0,9.0,94,0.00,,,0.00,,2013-07-15 07:01:00,
2013-07-15 02:11:00,69.0,68.0,-100.00,ENE,65,6.0,11.0,95,0.00,,,0.00,,2013-07-15 07:11:00,
2013-07-15 02:21:00,69.0,68.0,-100.00,ENE,75,7.0,11.0,95,0.00,,,0.00,,2013-07-15 07:21:00,
2013-07-15 02:32:00,69.0,68.0,-100.00,ENE,70,7.0,11.0,95,0.00,,,0.00,,2013-07-15 07:32:00,
2013-07-15 02:53:00,68.0,68.0,-100.00,ENE,75,10.0,13.0,95,0.00,,,0.00,,2013-07-15 07:53:00,
2013-07-15 03:01:00,68.0,68.0,-100.00,ENE,75,8.0,12.0,95,0.00,,,0.00,,2013-07-15 08:01:00,
2013-07-15 03:11:00,68.0,68.0,-100.00,ENE,70,7.0,12.0,95,0.00,,,0.00,,2013-07-15 08:11:00,
2013-07-15 03:22:00,68.0,68.0,-100.00,ENE,65,6.0,10.0,96,0.00,,,0.00,,2013-07-15 08:22:00,
2013-07-15 03:32:00,68.0,68.0,-100.00,ENE,75,7.0,9.0,96,0.00,,,0.00,,2013-07-15 08:32:00,
2013-07-15 03:53:00,68.0,68.0,-100.00,ENE,70,2.0,8.0,96,0.00,,,0.00,,2013-07-15 08:53:00,
2013-07-15 04:22:00,69.0,68.0,-100.00,East,85,2.0,5.0,94,0.00,,,0.00,,2013-07-15 09:22:00,
2013-07-15 04:32:00,69.0,68.0,-100.00,ESE,120,2.0,4.0,94,0.00,,,0.00,,2013-07-15 09:32:00,
2013-07-15 04:52:00,69.0,68.0,-100.00,ESE,115,3.0,4.0,94,0.00,,,0.00,,2013-07-15 09:52:00,
2013-07-15 05:02:00,69.0,68.0,-100.00,SE,140,1.0,4.0,94,0.00,,,0.00,,2013-07-15 10:02:00,
2013-07-15 05:11:00,69.0,68.0,-100.00,ESE,110,2.0,4.0,95,0.00,,,0.00,,2013-07-15 10:11:00,
2013-07-15 05:21:00,68.0,68.0,-100.00,ESE,110,4.0,5.0,95,0.00,,,0.00,,2013-07-15 10:21:00,
2013-07-15 05:32:00,69.0,66.0,-100.00,SE,125,6.0,7.0,94,0.00,,,0.00,,2013-07-15 10:32:00,
2013-07-15 05:52:00,69.0,66.0,-100.00,SE,130,6.0,9.0,93,0.00,,,0.00,,2013-07-15 10:52:00,
2013-07-15 06:01:00,69.0,66.0,-100.00,SE,140,6.0,9.0,92,0.00,,,0.00,,2013-07-15 11:01:00,
2013-07-15 06:11:00,69.0,66.0,-100.00,SE,145,6.0,9.0,92,0.00,,,0.00,,2013-07-15 11:11:00,
2013-07-15 06:22:00,69.0,66.0,-100.00,SE,145,7.0,11.0,93,0.00,,,0.00,,2013-07-15 11:22:00,
2013-07-15 06:32:00,69.0,66.0,-100.00,SSE,150,7.0,9.0,93,0.00,,,0.00,,2013-07-15 11:32:00,
2013-07-15 06:52:00,69.0,68.0,-100.00,SSE,155,7.0,10.0,94,0.00,,,0.00,,2013-07-15 11:52:00,
2013-07-15 07:11:00,69.0,68.0,-100.00,SSE,160,6.0,9.0,95,0.00,,,0.00,,2013-07-15 12:11:00,
2013-07-15 07:22:00,69.0,68.0,-100.00,SSE,155,7.0,9.0,95,0.00,,,0.00,,2013-07-15 12:22:00,
2013-07-15 07:32:00,69.0,68.0,-100.00,SE,145,7.0,11.0,94,0.00,,,0.00,,2013-07-15 12:32:00,
2013-07-15 07:52:00,69.0,68.0,-100.00,SE,140,6.0,8.0,94,0.00,,,0.00,,2013-07-15 12:52:00,
2013-07-15 08:01:00,70.0,68.0,-100.00,SSE,150,6.0,8.0,93,0.00,,,0.00,,2013-07-15 13:01:00,
2013-07-15 08:11:00,71.0,68.0,-100.00,SSE,160,7.0,9.0,91,0.00,,,0.00,,2013-07-15 13:11:00,
2013-07-15 08:22:00,71.0,68.0,-100.00,SSE,165,7.0,10.0,91,0.00,,,0.00,,2013-07-15 13:22:00,
2013-07-15 08:53:00,71.0,68.0,-100.00,SSE,150,7.0,11.0,91,0.00,,,0.00,,2013-07-15 13:53:00,
2013-07-15 09:02:00,71.0,68.0,-100.00,SSE,165,10.0,12.0,91,0.00,,,0.00,,2013-07-15 14:02:00,
2013-07-15 09:22:00,71.0,68.0,-100.00,South,170,7.0,10.0,90,0.00,,,0.00,,2013-07-15 14:22:00,
2013-07-15 09:33:00,72.0,70.0,-100.00,South,170,7.0,11.0,89,0.00,,,0.00,,2013-07-15 14:33:00,
2013-07-15 09:55:00,73.0,68.0,-100.00,SSE,165,10.0,11.0,87,0.00,,,0.00,,2013-07-15 14:55:00,
2013-07-15 10:24:00,76.0,70.0,-100.00,SSE,160,9.0,12.0,77,0.00,,,0.00,,2013-07-15 15:24:00,
2013-07-15 10:45:00,76.0,70.0,-100.00,SSE,160,9.0,14.0,79,0.00,,,0.00,,2013-07-15 15:45:00,
2013-07-15 10:53:00,76.0,70.0,-100.00,South,180,8.0,13.0,79,0.00,,,0.00,,2013-07-15 15:53:00,
2013-07-15 11:15:00,79.0,70.0,-100.00,South,175,9.0,12.0,71,0.00,,,0.00,,2013-07-15 16:15:00,
2013-07-15 11:24:00,79.0,66.0,-100.00,South,185,9.0,15.0,67,0.00,,,0.00,,2013-07-15 16:24:00,
2013-07-15 11:32:00,80.0,70.0,-100.00,South,175,8.0,14.0,70,0.00,,,0.00,,2013-07-15 16:32:00,
2013-07-15 12:13:00,81.0,66.0,-100.00,South,190,12.0,16.0,61,0.00,,,0.00,,2013-07-15 17:13:00,
2013-07-15 12:23:00,81.0,68.0,-100.00,SW,220,9.0,14.0,65,0.00,,,0.00,,2013-07-15 17:23:00,
2013-07-15 12:36:00,81.0,68.0,-100.00,South,190,11.0,16.0,62,0.00,,,0.00,,2013-07-15 17:36:00,
2013-07-15 12:47:00,81.0,66.0,-100.00,South,180,9.0,14.0,59,0.00,,,0.00,,2013-07-15 17:47:00,
2013-07-15 13:03:00,82.0,66.0,-100.00,SSW,195,10.0,16.0,57,0.00,,,0.00,,2013-07-15 18:03:00,
2013-07-15 13:14:00,82.0,66.0,-100.00,South,185,11.0,15.0,57,0.00,,,0.00,,2013-07-15 18:14:00,
2013-07-15 13:25:00,82.0,64.0,-100.00,SSW,200,11.0,14.0,57,0.00,,,0.00,,2013-07-15 18:25:00,
2013-07-15 14:24:00,83.0,63.0,-100.00,South,190,11.0,17.0,51,0.00,,,0.00,,2013-07-15 19:24:00,
2013-07-15 15:15:00,83.0,63.0,-100.00,South,175,11.0,15.0,48,0.00,,,0.00,,2013-07-15 20:15:00,
2013-07-15 15:35:00,83.0,64.0,-100.00,South,175,12.0,16.0,52,0.00,,,0.00,,2013-07-15 20:35:00,
2013-07-15 15:54:00,83.0,64.0,-100.00,SSE,165,11.0,15.0,52,0.00,,,0.00,,2013-07-15 20:54:00,
2013-07-15 16:12:00,82.0,64.0,-100.00,South,180,12.0,17.0,56,0.00,,,0.00,,2013-07-15 21:12:00,
2013-07-15 16:23:00,84.0,64.0,-100.00,South,185,12.0,15.0,51,0.00,,,0.00,,2013-07-15 21:23:00,
2013-07-15 17:02:00,82.0,64.0,-100.00,South,180,13.0,16.0,55,0.00,,,0.00,,2013-07-15 22:02:00,
2013-07-15 17:15:00,82.0,66.0,-100.00,South,185,10.0,16.0,57,0.00,,,0.00,,2013-07-15 22:15:00,
2013-07-15 17:22:00,82.0,64.0,-100.00,South,180,12.0,15.0,55,0.00,,,0.00,,2013-07-15 22:22:00,
2013-07-15 18:04:00,84.0,66.0,-100.00,South,180,7.0,12.0,54,0.00,,,0.00,,2013-07-15 23:04:00,
2013-07-15 18:25:00,83.0,66.0,-100.00,SSW,205,9.0,14.0,56,0.00,,,0.00,,2013-07-15 23:25:00,
2013-07-15 18:35:00,82.0,66.0,-100.00,South,180,10.0,14.0,58,0.00,,,0.00,,2013-07-15 23:35:00,
2013-07-15 18:53:00,82.0,66.0,-100.00,South,180,9.0,12.0,58,0.00,,,0.00,,2013-07-15 23:53:00,
2013-07-15 19:03:00,82.0,66.0,-100.00,South,180,7.0,11.0,59,0.00,,,0.00,,2013-07-16 00:03:00,
2013-07-15 19:13:00,81.0,66.0,-100.00,South,175,6.0,9.0,60,0.00,,,0.00,,2013-07-16 00:13:00,
2013-07-15 19:25:00,81.0,68.0,-100.00,South,185,6.0,7.0,64,0.00,,,0.00,,2013-07-16 00:25:00,
2013-07-15 19:52:00,81.0,68.0,-100.00,SSE,155,4.0,6.0,64,0.00,,,0.00,,2013-07-16 00:52:00,
2013-07-15 20:05:00,81.0,68.0,-100.00,SE,145,4.0,6.0,64,0.00,,,0.00,,2013-07-16 01:05:00,
2013-07-15 20:34:00,79.0,70.0,-100.00,SE,130,6.0,6.0,71,0.00,,,0.00,,2013-07-16 01:34:00,
2013-07-15 20:55:00,78.0,68.0,-100.00,SE,135,6.0,7.0,70,0.00,,,0.00,,2013-07-16 01:55:00,
2013-07-15 21:25:00,77.0,68.0,-100.00,SE,130,9.0,10.0,73,0.00,,,0.00,,2013-07-16 02:25:00,
2013-07-15 21:35:00,77.0,68.0,-100.00,SE,130,9.0,10.0,74,0.00,,,0.00,,2013-07-16 02:35:00,
2013-07-15 21:46:00,77.0,68.0,-100.00,SE,130,7.0,11.0,75,0.00,,,0.00,,2013-07-16 02:46:00,
2013-07-15 21:54:00,77.0,68.0,-100.00,SE,135,7.0,11.0,74,0.00,,,0.00,,2013-07-16 02:54:00,
2013-07-15 22:05:00,77.0,68.0,-100.00,SE,140,9.0,12.0,74,0.00,,,0.00,,2013-07-16 03:05:00,
2013-07-15 22:14:00,77.0,68.0,-100.00,SE,135,9.0,14.0,74,0.00,,,0.00,,2013-07-16 03:14:00,
2013-07-15 22:55:00,77.0,68.0,-100.00,SE,135,10.0,14.0,73,0.00,,,0.00,,2013-07-16 03:55:00,
2013-07-15 23:01:00,77.0,68.0,-100.00,SE,140,11.0,18.0,73,0.00,,,0.00,,2013-07-16 04:01:00,
2013-07-15 23:22:00,77.0,68.0,-100.00,SE,145,13.0,17.0,73,0.00,,,0.00,,2013-07-16 04:22:00,
2013-07-15 23:32:00,77.0,68.0,-100.00,SE,145,12.0,17.0,73,0.00,,,0.00,,2013-07-16 04:32:00,
2013-07-15 23:53:00,76.0,68.0,-100.00,SSE,150,12.0,17.0,74,0.00,,,0.00,,2013-07-16 04:53:00,